Adrian, Oregon
Current Conditions -  °F | °C
As of 8:53 AM on Sunday 21 Dec 2014 (Local Time) from KONO Reporting Station
Light Rain Light Rain  
Wind Chill:   Ceiling: 6000
Heat Index:   Visibility: 10mi
Dew Point:   Wind: 8mph
Humidity: 89%   Direction: 10°N
Pressure: 29.87"   Gusts: 17mph
Location:  43.74°N, 117.07°W
Report Text: KONO 211553Z AUTO 01007G15KT 10SM -RA SCT050 OVC060 06/04 A2987 RMK AO2 RAB50 SLP123 P0000 T00610044
Loading
Personal Weather Stations






























Interactive Weather Map New forecast layout! Learn more

10-Day Weather Forecast

Advertisements
Track Severe Weather on mobile